createdAt,value
2023-02-26T00:01:20.073Z,7.03
2023-02-26T00:03:49.506Z,7.53
2023-02-26T00:06:17.112Z,7.03
2023-02-26T00:08:46.146Z,7.38
2023-02-26T00:11:14.464Z,6.70
2023-02-26T00:13:43.304Z,5.68
2023-02-26T00:16:14.532Z,7.15
2023-02-26T00:18:42.373Z,7.10
2023-02-26T00:21:16.068Z,6.78
2023-02-26T00:23:43.799Z,6.38
2023-02-26T00:26:12.686Z,5.68
2023-02-26T00:28:40.653Z,6.00
2023-02-26T00:31:08.634Z,6.03
2023-02-26T00:33:36.789Z,6.50
2023-02-26T00:36:10.320Z,5.80
2023-02-26T00:38:38.652Z,5.90
2023-02-26T00:41:08.187Z,5.57
2023-02-26T00:43:37.666Z,5.30
2023-02-26T00:46:11.525Z,6.68
2023-02-26T00:48:43.643Z,6.45
2023-02-26T00:51:14.476Z,6.53
2023-02-26T00:53:45.169Z,5.75
2023-02-26T00:56:12.632Z,5.65
2023-02-26T00:58:41.559Z,6.18
2023-02-26T01:01:09.514Z,6.22
2023-02-26T01:03:37.429Z,6.47
2023-02-26T01:06:05.519Z,5.97
2023-02-26T01:08:35.826Z,5.68
2023-02-26T01:11:03.541Z,5.32
2023-02-26T01:13:33.778Z,5.65
2023-02-26T01:16:07.322Z,6.80
2023-02-26T01:18:39.442Z,6.05
2023-02-26T01:21:09.587Z,6.47
2023-02-26T01:23:41.205Z,5.63
2023-02-26T01:26:13.617Z,5.95
2023-02-26T01:28:41.294Z,5.22
2023-02-26T01:31:14.928Z,6.28
2023-02-26T01:33:48.039Z,6.35
2023-02-26T01:36:19.559Z,5.25
2023-02-26T01:38:52.760Z,5.13
2023-02-26T01:41:31.319Z,5.87
2023-02-26T01:44:03.470Z,5.15
2023-02-26T01:46:36.641Z,5.43
2023-02-26T01:49:04.963Z,5.97
2023-02-26T01:51:43.641Z,4.80
2023-02-26T01:54:11.446Z,5.72
2023-02-26T01:56:39.510Z,4.72
2023-02-26T01:59:09.388Z,5.10
2023-02-26T02:01:39.491Z,5.88
2023-02-26T02:04:08.985Z,4.80
2023-02-26T02:06:36.617Z,6.63
2023-02-26T02:09:04.185Z,5.82
2023-02-26T02:11:32.262Z,5.63
2023-02-26T02:14:06.965Z,5.68
2023-02-26T02:16:39.064Z,5.88
2023-02-26T02:19:15.480Z,5.10
2023-02-26T02:22:03.245Z,5.00
2023-02-26T02:24:36.736Z,5.32
2023-02-26T02:27:09.274Z,5.05
2023-02-26T02:29:51.733Z,5.25
2023-02-26T02:32:22.528Z,5.50
2023-02-26T02:34:51.220Z,5.25
2023-02-26T02:37:21.782Z,5.70
2023-02-26T02:39:51.810Z,5.43
2023-02-26T02:42:21.714Z,5.55
2023-02-26T02:44:51.925Z,5.47
2023-02-26T02:47:21.643Z,5.25
2023-02-26T02:49:53.398Z,5.20
2023-02-26T02:52:24.110Z,4.85
2023-02-26T02:54:52.978Z,4.47
2023-02-26T02:57:22.244Z,5.25
2023-02-26T02:59:52.359Z,5.00
2023-02-26T03:02:25.004Z,4.55
2023-02-26T03:04:52.639Z,5.13
2023-02-26T03:07:20.214Z,5.38
2023-02-26T03:09:47.871Z,4.90
2023-02-26T03:12:15.515Z,5.65
2023-02-26T03:14:43.539Z,5.97
2023-02-26T03:17:19.689Z,6.22
2023-02-26T03:19:54.905Z,4.78
2023-02-26T03:22:26.839Z,5.03
2023-02-26T03:24:56.693Z,5.57
2023-02-26T03:27:26.042Z,5.35
2023-02-26T03:29:56.587Z,4.28
2023-02-26T03:32:27.163Z,4.97
2023-02-26T03:35:00.651Z,5.70
2023-02-26T03:37:32.657Z,4.55
2023-02-26T03:40:05.100Z,5.32
2023-02-26T03:42:36.199Z,5.20
2023-02-26T03:45:06.347Z,5.78
2023-02-26T03:47:34.929Z,6.25
2023-02-26T03:50:06.800Z,4.93
2023-02-26T03:52:36.830Z,6.55
2023-02-26T03:55:06.545Z,5.57
2023-02-26T03:57:34.137Z,5.60
2023-02-26T04:00:01.910Z,5.47
2023-02-26T04:02:32.855Z,5.68
2023-02-26T04:05:02.427Z,5.88
2023-02-26T04:07:31.720Z,5.00
2023-02-26T04:09:59.190Z,5.95
2023-02-26T04:12:27.733Z,5.70
2023-02-26T04:14:55.761Z,5.43
2023-02-26T04:17:23.305Z,5.07
2023-02-26T04:19:50.957Z,5.55
2023-02-26T04:22:18.478Z,5.68
2023-02-26T04:24:50.790Z,5.55
2023-02-26T04:27:18.473Z,5.38
2023-02-26T04:29:45.964Z,5.30
2023-02-26T04:32:13.679Z,5.93
2023-02-26T04:34:41.294Z,5.88
2023-02-26T04:37:08.985Z,5.85
2023-02-26T04:39:36.424Z,5.43
2023-02-26T04:42:05.511Z,4.78
2023-02-26T04:44:33.044Z,5.05
2023-02-26T04:47:00.521Z,5.57
2023-02-26T04:49:28.137Z,5.82
2023-02-26T04:51:55.687Z,5.75
2023-02-26T04:54:23.203Z,5.03
2023-02-26T04:56:50.802Z,6.05
2023-02-26T04:59:19.809Z,6.25
2023-02-26T05:01:47.352Z,4.78
2023-02-26T05:04:14.992Z,6.07
2023-02-26T05:06:42.958Z,6.28
2023-02-26T05:09:10.622Z,5.75
2023-02-26T05:11:38.229Z,5.78
2023-02-26T05:14:05.854Z,5.43
2023-02-26T05:16:38.558Z,4.60
2023-02-26T05:19:06.156Z,4.80
2023-02-26T05:21:33.691Z,5.80
2023-02-26T05:24:02.229Z,4.95
2023-02-26T05:26:30.048Z,5.55
2023-02-26T05:28:57.546Z,5.88
2023-02-26T05:31:25.084Z,4.95
2023-02-26T05:33:54.022Z,5.03
2023-02-26T05:36:21.491Z,6.80
2023-02-26T05:38:49.077Z,5.20
2023-02-26T05:41:16.610Z,4.90
2023-02-26T05:43:44.163Z,5.05
2023-02-26T05:46:11.837Z,5.05
2023-02-26T05:48:39.356Z,5.25
2023-02-26T05:51:08.492Z,5.20
2023-02-26T05:53:36.009Z,5.35
2023-02-26T05:56:05.956Z,4.57
2023-02-26T05:58:34.112Z,6.22
2023-02-26T06:01:02.054Z,5.45
2023-02-26T06:03:29.652Z,5.47
2023-02-26T06:05:57.213Z,5.20
2023-02-26T06:08:26.274Z,5.30
2023-02-26T06:10:53.892Z,5.63
2023-02-26T06:13:21.394Z,5.32
2023-02-26T06:15:50.744Z,5.65
2023-02-26T06:18:18.322Z,5.45
2023-02-26T06:20:46.216Z,5.60
2023-02-26T06:23:15.046Z,5.45
2023-02-26T06:25:44.269Z,5.57
2023-02-26T06:28:11.868Z,5.82
2023-02-26T06:30:39.457Z,5.30
2023-02-26T06:33:07.266Z,6.68
2023-02-26T06:35:34.777Z,6.13
2023-02-26T06:38:02.321Z,5.65
2023-02-26T06:40:30.693Z,7.68
2023-02-26T06:42:59.793Z,6.88
2023-02-26T06:45:27.378Z,6.93
2023-02-26T06:47:54.957Z,5.55
2023-02-26T06:50:22.703Z,5.60
2023-02-26T06:52:51.380Z,6.32
2023-02-26T06:55:19.059Z,6.22
2023-02-26T06:57:46.620Z,6.72
2023-02-26T07:00:16.044Z,6.85
2023-02-26T07:02:43.691Z,6.45
2023-02-26T07:05:11.255Z,6.57
2023-02-26T07:07:38.994Z,5.70
2023-02-26T07:10:06.923Z,6.20
2023-02-26T07:12:34.455Z,7.20
2023-02-26T07:15:01.989Z,7.70
2023-02-26T07:17:30.952Z,7.07
2023-02-26T07:19:58.459Z,6.88
2023-02-26T07:22:26.021Z,6.10
2023-02-26T07:24:53.593Z,6.07
2023-02-26T07:27:21.134Z,6.60
2023-02-26T07:29:48.854Z,6.97
2023-02-26T07:32:16.385Z,6.43
2023-02-26T07:34:45.388Z,6.50
2023-02-26T07:37:12.927Z,6.13
2023-02-26T07:39:40.521Z,6.57
2023-02-26T07:42:09.149Z,5.25
2023-02-26T07:44:36.671Z,6.55
2023-02-26T07:47:04.471Z,5.55
2023-02-26T07:49:34.055Z,5.60
2023-02-26T07:52:03.142Z,6.32
2023-02-26T07:54:30.995Z,5.55
2023-02-26T07:56:58.525Z,5.28
2023-02-26T07:59:26.162Z,6.43
2023-02-26T08:01:53.920Z,6.22
2023-02-26T08:04:21.573Z,5.35
2023-02-26T08:06:49.117Z,5.43
2023-02-26T08:09:18.132Z,6.20
2023-02-26T08:11:45.674Z,6.72
2023-02-26T08:14:13.518Z,6.60
2023-02-26T08:16:41.050Z,6.90
2023-02-26T08:19:08.649Z,6.10
2023-02-26T08:21:36.181Z,5.53
2023-02-26T08:24:03.751Z,6.10
2023-02-26T08:26:32.914Z,5.25
2023-02-26T08:29:00.487Z,5.75
2023-02-26T08:31:28.351Z,6.07
2023-02-26T08:33:56.238Z,5.20
2023-02-26T08:36:24.232Z,5.65
2023-02-26T08:38:52.071Z,5.25
2023-02-26T08:41:19.690Z,5.45
2023-02-26T08:43:48.616Z,5.70
2023-02-26T08:46:16.257Z,6.13
2023-02-26T08:48:44.142Z,6.20
2023-02-26T08:51:12.082Z,6.05
2023-02-26T08:53:40.345Z,6.75
2023-02-26T08:56:08.190Z,5.82
2023-02-26T08:58:35.678Z,7.38
2023-02-26T09:01:06.513Z,5.60
2023-02-26T09:03:34.027Z,5.63
2023-02-26T09:06:01.552Z,5.68
2023-02-26T09:08:29.182Z,6.15
2023-02-26T09:11:00.357Z,6.82
2023-02-26T09:13:27.930Z,5.53
2023-02-26T09:15:55.588Z,6.00
2023-02-26T09:18:24.851Z,5.93
2023-02-26T09:20:52.523Z,6.35
2023-02-26T09:23:20.238Z,8.30
2023-02-26T09:25:47.762Z,5.97
2023-02-26T09:28:15.263Z,5.40
2023-02-26T09:30:43.565Z,5.80
2023-02-26T09:33:11.137Z,5.80
2023-02-26T09:35:39.997Z,5.95
2023-02-26T09:38:08.293Z,5.68
2023-02-26T09:40:41.811Z,5.75
2023-02-26T09:43:19.800Z,4.95
2023-02-26T09:45:48.870Z,6.20
2023-02-26T09:48:17.608Z,5.95
2023-02-26T09:50:47.918Z,4.68
2023-02-26T09:53:19.368Z,5.38
2023-02-26T09:55:50.310Z,6.57
2023-02-26T09:58:20.073Z,5.53
2023-02-26T10:00:52.834Z,6.03
2023-02-26T10:03:25.088Z,4.72
2023-02-26T10:06:02.249Z,5.35
2023-02-26T10:08:36.930Z,5.50
2023-02-26T10:11:06.598Z,5.95
2023-02-26T10:13:56.023Z,5.57
2023-02-26T10:16:28.771Z,4.68
2023-02-26T10:18:58.177Z,6.72
2023-02-26T10:21:29.622Z,6.28
2023-02-26T10:23:58.734Z,5.95
2023-02-26T10:26:28.607Z,5.18
2023-02-26T10:29:00.493Z,5.47
2023-02-26T10:31:31.178Z,5.70
2023-02-26T10:34:05.619Z,5.28
2023-02-26T10:36:38.507Z,4.55
2023-02-26T10:39:17.128Z,4.28
2023-02-26T10:41:45.015Z,6.20
2023-02-26T10:44:17.915Z,4.57
2023-02-26T10:46:47.589Z,4.57
2023-02-26T10:49:25.265Z,4.18
2023-02-26T10:51:55.288Z,4.00
2023-02-26T10:54:24.892Z,4.47
2023-02-26T10:56:52.417Z,4.53
2023-02-26T10:59:20.112Z,3.50
2023-02-26T11:01:50.226Z,4.15
2023-02-26T11:04:19.185Z,4.68
2023-02-26T11:06:48.391Z,4.80
2023-02-26T11:09:20.332Z,5.60
2023-02-26T11:11:52.020Z,4.45
2023-02-26T11:14:21.680Z,4.95
2023-02-26T11:16:53.852Z,4.97
2023-02-26T11:19:24.718Z,5.03
2023-02-26T11:21:52.311Z,4.60
2023-02-26T11:24:24.801Z,4.70
2023-02-26T11:26:55.964Z,5.55
2023-02-26T11:29:24.151Z,5.57
2023-02-26T11:31:52.519Z,5.15
2023-02-26T11:34:25.915Z,5.30
2023-02-26T11:36:54.537Z,4.40
2023-02-26T11:39:24.946Z,4.65
2023-02-26T11:41:54.980Z,4.30
2023-02-26T11:44:35.938Z,4.72
2023-02-26T11:47:05.174Z,5.50
2023-02-26T11:49:33.305Z,5.28
2023-02-26T11:52:06.732Z,4.80
2023-02-26T11:54:38.320Z,4.90
2023-02-26T11:57:08.958Z,5.53
2023-02-26T11:59:40.841Z,4.88
2023-02-26T12:02:12.864Z,5.18
2023-02-26T12:04:41.544Z,6.07
2023-02-26T12:07:12.733Z,6.60
2023-02-26T12:09:42.053Z,5.63
2023-02-26T12:12:14.000Z,7.20
2023-02-26T12:14:48.580Z,6.18
2023-02-26T12:17:26.610Z,5.57
2023-02-26T12:19:57.075Z,5.88
2023-02-26T12:22:30.964Z,6.78
2023-02-26T12:25:21.842Z,5.70
2023-02-26T12:27:57.892Z,5.75
2023-02-26T12:30:40.887Z,5.93
2023-02-26T12:33:18.864Z,6.22
2023-02-26T12:36:00.205Z,5.30
2023-02-26T12:38:31.360Z,5.82
2023-02-26T12:41:18.197Z,5.75
2023-02-26T12:43:47.422Z,5.25
2023-02-26T12:46:23.410Z,6.43
2023-02-26T12:49:07.457Z,5.70
2023-02-26T12:51:47.228Z,4.60
2023-02-26T12:54:34.242Z,4.72
2023-02-26T12:57:10.797Z,5.20
2023-02-26T12:59:48.643Z,4.80
2023-02-26T13:02:29.332Z,5.50
2023-02-26T13:05:10.897Z,4.75
2023-02-26T13:07:49.902Z,5.80
2023-02-26T13:10:22.077Z,5.95
2023-02-26T13:12:55.353Z,5.57
2023-02-26T13:15:34.172Z,5.97
2023-02-26T13:18:04.736Z,4.63
2023-02-26T13:20:33.194Z,4.28
2023-02-26T13:23:02.230Z,5.97
2023-02-26T13:25:33.224Z,6.03
2023-02-26T13:28:03.094Z,5.15
2023-02-26T13:30:34.085Z,5.38
2023-02-26T13:33:03.001Z,5.72
2023-02-26T13:35:32.756Z,5.47
2023-02-26T13:38:02.963Z,5.20
2023-02-26T13:40:41.947Z,4.55
2023-02-26T13:43:17.206Z,4.97
2023-02-26T13:45:49.804Z,5.05
2023-02-26T13:48:21.721Z,4.82
2023-02-26T13:50:54.698Z,6.32
2023-02-26T13:53:49.908Z,5.93
2023-02-26T13:56:18.798Z,4.75
2023-02-26T13:58:49.826Z,5.38
2023-02-26T14:01:18.548Z,4.60
2023-02-26T14:03:48.355Z,5.82
2023-02-26T14:06:34.592Z,4.80
2023-02-26T14:09:04.800Z,5.35
2023-02-26T14:11:40.156Z,5.32
2023-02-26T14:14:15.822Z,5.18
2023-02-26T14:16:44.789Z,6.40
2023-02-26T14:19:22.378Z,6.22
2023-02-26T14:21:50.903Z,5.65
2023-02-26T14:24:20.553Z,6.05
2023-02-26T14:26:51.887Z,5.90
2023-02-26T14:29:27.248Z,5.30
2023-02-26T14:31:56.628Z,5.03
2023-02-26T14:34:25.392Z,5.28
2023-02-26T14:36:54.225Z,5.47
2023-02-26T14:39:27.060Z,5.82
2023-02-26T14:41:57.081Z,5.53
2023-02-26T14:44:35.534Z,6.28
2023-02-26T14:47:03.966Z,6.35
2023-02-26T14:49:33.558Z,6.32
2023-02-26T14:52:11.601Z,6.50
2023-02-26T14:54:46.580Z,6.43
2023-02-26T14:57:19.968Z,5.68
2023-02-26T14:59:54.868Z,6.10
2023-02-26T15:02:26.074Z,6.95
2023-02-26T15:05:22.496Z,5.60
2023-02-26T15:07:59.807Z,5.43
2023-02-26T15:10:37.722Z,6.32
2023-02-26T15:13:30.846Z,7.15
2023-02-26T15:16:07.869Z,5.82
2023-02-26T15:19:20.559Z,6.55
2023-02-26T15:21:57.619Z,6.00
2023-02-26T15:24:46.369Z,5.72
2023-02-26T15:27:16.543Z,5.50
2023-02-26T15:29:52.901Z,7.03
2023-02-26T15:32:26.471Z,6.30
2023-02-26T15:34:59.618Z,7.03
2023-02-26T15:37:28.688Z,5.97
2023-02-26T15:39:56.268Z,5.90
2023-02-26T15:42:26.946Z,6.25
2023-02-26T15:44:57.161Z,5.63
2023-02-26T15:47:29.227Z,5.88
2023-02-26T15:50:00.175Z,6.45
2023-02-26T15:52:29.941Z,6.93
2023-02-26T15:55:02.881Z,6.47
2023-02-26T15:57:35.118Z,5.20
2023-02-26T16:00:08.087Z,6.38
2023-02-26T16:02:37.568Z,6.43
2023-02-26T16:05:05.415Z,6.45
2023-02-26T16:07:34.465Z,6.03
2023-02-26T16:10:06.221Z,6.32
2023-02-26T16:12:36.871Z,7.22
2023-02-26T16:15:06.700Z,7.60
2023-02-26T16:17:39.675Z,7.82
2023-02-26T16:20:16.295Z,6.65
2023-02-26T16:22:52.484Z,8.13
2023-02-26T16:25:25.385Z,8.48
2023-02-26T16:27:56.126Z,7.82
2023-02-26T16:30:27.889Z,7.63
2023-02-26T16:32:55.621Z,8.00
2023-02-26T16:35:31.290Z,8.52
2023-02-26T16:37:59.406Z,7.18
2023-02-26T16:40:28.584Z,9.00
2023-02-26T16:43:10.161Z,7.60
2023-02-26T16:45:50.948Z,7.50
2023-02-26T16:48:20.537Z,7.20
2023-02-26T16:50:52.989Z,7.30
2023-02-26T16:53:21.692Z,7.93
2023-02-26T16:55:52.417Z,8.38
2023-02-26T16:58:21.982Z,8.82
2023-02-26T17:00:55.603Z,7.75
2023-02-26T17:03:24.962Z,8.00
2023-02-26T17:06:15.806Z,8.02
2023-02-26T17:09:02.838Z,9.55
2023-02-26T17:11:34.401Z,8.43
2023-02-26T17:14:11.156Z,10.70
2023-02-26T17:16:38.974Z,10.82
2023-02-26T17:19:07.343Z,9.35
2023-02-26T17:21:38.900Z,10.85
2023-02-26T17:24:06.801Z,10.15
2023-02-26T17:26:34.490Z,10.80
2023-02-26T17:29:05.325Z,8.60
2023-02-26T17:31:33.164Z,9.07
2023-02-26T17:34:01.035Z,10.05
2023-02-26T17:36:29.876Z,10.35
2023-02-26T17:39:02.912Z,10.45
2023-02-26T17:41:30.570Z,11.38
2023-02-26T17:43:58.209Z,9.90
2023-02-26T17:46:28.556Z,9.38
2023-02-26T17:48:56.225Z,10.55
2023-02-26T17:51:24.114Z,10.23
2023-02-26T17:53:51.686Z,10.02
2023-02-26T17:56:25.829Z,10.85
2023-02-26T18:01:23.547Z,10.15
2023-02-26T18:03:51.723Z,10.23
2023-02-26T18:06:19.359Z,10.73
2023-02-26T18:08:48.708Z,10.20
2023-02-26T18:11:17.189Z,10.50
2023-02-26T18:13:48.449Z,10.07
2023-02-26T18:16:17.993Z,9.70
2023-02-26T18:18:45.586Z,10.07
2023-02-26T18:21:14.903Z,9.85
2023-02-26T18:23:43.011Z,10.73
2023-02-26T18:26:11.277Z,8.38
2023-02-26T18:28:41.190Z,10.38
2023-02-26T18:31:17.277Z,9.95
2023-02-26T18:33:46.317Z,9.30
2023-02-26T18:36:17.551Z,9.73
2023-02-26T18:38:45.150Z,9.43
2023-02-26T18:41:12.898Z,9.07
2023-02-26T18:43:42.726Z,10.43
2023-02-26T18:46:14.470Z,10.10
2023-02-26T18:48:42.574Z,9.90
2023-02-26T18:51:11.336Z,9.25
2023-02-26T18:53:38.964Z,9.85
2023-02-26T18:56:07.332Z,9.95
2023-02-26T18:58:34.857Z,11.13
2023-02-26T19:01:04.845Z,10.15
2023-02-26T19:03:34.276Z,11.98
2023-02-26T19:06:02.963Z,12.98
2023-02-26T19:08:31.413Z,12.63
2023-02-26T19:10:59.261Z,13.18
2023-02-26T19:13:27.167Z,12.35
2023-02-26T19:15:55.132Z,11.32
2023-02-26T19:18:22.824Z,11.75
2023-02-26T19:20:52.004Z,11.20
2023-02-26T19:23:19.946Z,10.18
2023-02-26T19:25:47.470Z,10.15
2023-02-26T19:28:15.161Z,10.43
2023-02-26T19:30:43.166Z,9.90
2023-02-26T19:33:10.961Z,10.95
2023-02-26T19:35:38.466Z,10.40
2023-02-26T19:38:07.653Z,9.98
2023-02-26T19:40:35.183Z,9.38
2023-02-26T19:43:02.808Z,10.82
2023-02-26T19:45:30.584Z,10.00
2023-02-26T19:47:58.283Z,10.57
2023-02-26T19:50:28.295Z,9.15
2023-02-26T19:52:56.361Z,10.70
2023-02-26T19:55:25.584Z,10.18
2023-02-26T19:57:53.177Z,10.00
2023-02-26T20:00:21.086Z,10.18
2023-02-26T20:02:48.766Z,9.25
2023-02-26T20:05:18.171Z,9.52
2023-02-26T20:07:46.604Z,8.45
2023-02-26T20:10:15.821Z,9.00
2023-02-26T20:12:45.186Z,9.40
2023-02-26T20:15:13.105Z,9.00
2023-02-26T20:17:42.074Z,7.65
2023-02-26T20:20:10.365Z,7.30
2023-02-26T20:22:38.001Z,7.88
2023-02-26T20:25:06.056Z,6.85
2023-02-26T20:27:33.669Z,7.60
2023-02-26T20:30:02.716Z,8.02
2023-02-26T20:32:30.443Z,6.78
2023-02-26T20:34:58.196Z,5.85
2023-02-26T20:37:25.797Z,6.57
2023-02-26T20:39:53.334Z,6.13
2023-02-26T20:42:21.145Z,6.47
2023-02-26T20:44:48.712Z,5.97
2023-02-26T20:47:18.169Z,6.13
2023-02-26T20:49:45.775Z,5.22
2023-02-26T20:52:13.405Z,5.60
2023-02-26T20:54:41.070Z,6.00
2023-02-26T20:57:08.667Z,5.47
2023-02-26T20:59:36.218Z,5.30
2023-02-26T21:02:04.200Z,5.50
2023-02-26T21:04:33.111Z,6.00
2023-02-26T21:07:13.385Z,5.10
2023-02-26T21:09:41.022Z,5.43
2023-02-26T21:12:08.745Z,4.70
2023-02-26T21:14:36.686Z,5.55
2023-02-26T21:17:04.432Z,5.40
2023-02-26T21:19:33.287Z,5.80
2023-02-26T21:22:04.209Z,5.70
2023-02-26T21:24:31.915Z,6.00
2023-02-26T21:26:59.452Z,5.72
2023-02-26T21:29:27.188Z,5.50
2023-02-26T21:31:57.105Z,5.40
2023-02-26T21:34:33.613Z,4.47
2023-02-26T21:37:03.401Z,4.38
2023-02-26T21:39:32.401Z,5.63
2023-02-26T21:42:00.491Z,4.07
2023-02-26T21:44:28.152Z,4.88
2023-02-26T21:46:57.347Z,5.30
2023-02-26T21:49:24.926Z,4.32
2023-02-26T21:51:52.780Z,4.82
2023-02-26T21:54:21.681Z,4.28
2023-02-26T21:56:52.085Z,4.00
2023-02-26T21:59:19.612Z,4.03
2023-02-26T22:01:47.343Z,3.95
2023-02-26T22:04:15.070Z,4.20
2023-02-26T22:06:42.650Z,4.13
2023-02-26T22:09:10.281Z,3.95
2023-02-26T22:11:39.105Z,3.92
2023-02-26T22:14:06.922Z,3.90
2023-02-26T22:16:34.532Z,4.45
2023-02-26T22:19:02.082Z,4.90
2023-02-26T22:21:29.759Z,4.95
2023-02-26T22:23:57.376Z,4.35
2023-02-26T22:26:24.906Z,4.10
2023-02-26T22:28:54.470Z,4.82
2023-02-26T22:31:22.860Z,3.92
2023-02-26T22:33:50.455Z,4.30
2023-02-26T22:36:18.001Z,5.07
2023-02-26T22:38:45.579Z,5.43
2023-02-26T22:41:13.098Z,4.35
2023-02-26T22:43:40.633Z,4.95
2023-02-26T22:46:09.519Z,4.97
2023-02-26T22:48:37.096Z,4.95
2023-02-26T22:51:04.805Z,5.20
2023-02-26T22:53:32.342Z,5.20
2023-02-26T22:55:59.821Z,5.68
2023-02-26T22:58:27.357Z,5.22
2023-02-26T23:00:59.582Z,5.53
2023-02-26T23:03:29.381Z,5.72
2023-02-26T23:05:57.123Z,8.85
2023-02-26T23:08:24.654Z,5.22
2023-02-26T23:10:54.645Z,6.53
2023-02-26T23:13:22.169Z,4.97
2023-02-26T23:15:49.808Z,5.22
2023-02-26T23:18:17.405Z,5.25
2023-02-26T23:20:46.572Z,4.65
2023-02-26T23:23:14.589Z,3.95
2023-02-26T23:25:42.495Z,4.80
2023-02-26T23:28:10.312Z,3.90
2023-02-26T23:30:37.841Z,3.97
2023-02-26T23:33:07.361Z,3.65
2023-02-26T23:35:35.308Z,4.13
2023-02-26T23:38:04.358Z,4.05
2023-02-26T23:40:32.385Z,3.50
2023-02-26T23:43:00.113Z,3.80
2023-02-26T23:45:29.957Z,2.85
2023-02-26T23:47:57.515Z,3.65
2023-02-26T23:50:25.043Z,3.90
2023-02-26T23:52:52.632Z,3.65
2023-02-26T23:55:21.683Z,3.95
2023-02-26T23:57:49.248Z,3.80
